WAT253 CYYE-CYXJ
Flight info
| Callsign | WAT253 |
|---|---|
| Flight time | 0h 48m |
| Altitude | 25000 |
| Route | KELGA |
| Aircraft | PC12/L-SDFGRWY/S |
Departure
| Time | 2026-04-11 20:57 |
|---|---|
| Airport | Fort Nelson Airport (CYYE) |
Arrival
| Time | 2026-04-11 21:45 |
|---|---|
| Airport | Fort St John / North Peace Regional Airport (CYXJ) |
| Time | Latitude | Longitude | Altitude | Speed | Heading |
|---|---|---|---|---|---|
| 2026-04-11 20:48 | 58.83833 | -122.58691 | 1245 ft | 0 kts | 17° |
| 2026-04-11 20:54 | 58.83852 | -122.58705 | 1249 ft | 5 kts | 322° |
| 2026-04-11 20:55 | 58.83881 | -122.58752 | 1247 ft | 6 kts | 319° |
| 2026-04-11 20:55 | 58.83927 | -122.58798 | 1249 ft | 9 kts | 359° |
| 2026-04-11 20:55 | 58.83998 | -122.58792 | 1253 ft | 12 kts | 2° |
| 2026-04-11 20:55 | 58.84077 | -122.58840 | 1255 ft | 11 kts | 313° |
| 2026-04-11 20:56 | 58.84049 | -122.59025 | 1254 ft | 23 kts | 236° |
| 2026-04-11 20:56 | 58.83875 | -122.59553 | 1258 ft | 71 kts | 241° |
| 2026-04-11 20:56 | 58.83532 | -122.60520 | 1290 ft | 98 kts | 243° |
| 2026-04-11 20:56 | 58.83160 | -122.61693 | 1503 ft | 107 kts | 244° |
| 2026-04-11 20:57 | 58.82762 | -122.62964 | 1786 ft | 115 kts | 245° |
| 2026-04-11 20:57 | 58.82344 | -122.64376 | 2083 ft | 127 kts | 244° |
| 2026-04-11 20:57 | 58.81899 | -122.65931 | 2455 ft | 137 kts | 245° |
| 2026-04-11 20:57 | 58.81367 | -122.67537 | 2804 ft | 151 kts | 223° |
| 2026-04-11 20:58 | 58.80337 | -122.68118 | 3213 ft | 165 kts | 172° |
| 2026-04-11 20:58 | 58.79283 | -122.67230 | 3639 ft | 172 kts | 149° |
| 2026-04-11 20:58 | 58.78210 | -122.66039 | 4078 ft | 179 kts | 152° |
| 2026-04-11 20:58 | 58.77072 | -122.64918 | 4512 ft | 187 kts | 154° |
| 2026-04-11 20:59 | 58.75904 | -122.63814 | 4968 ft | 191 kts | 154° |
| 2026-04-11 20:59 | 58.74704 | -122.62676 | 5466 ft | 192 kts | 154° |
| 2026-04-11 20:59 | 58.73504 | -122.61533 | 5977 ft | 194 kts | 154° |
| 2026-04-11 20:59 | 58.72286 | -122.60373 | 6494 ft | 195 kts | 155° |
| 2026-04-11 21:00 | 58.71066 | -122.59214 | 6979 ft | 196 kts | 155° |
| 2026-04-11 21:00 | 58.69838 | -122.58047 | 7470 ft | 197 kts | 155° |
| 2026-04-11 21:00 | 58.68600 | -122.56872 | 7967 ft | 199 kts | 155° |
| 2026-04-11 21:00 | 58.67353 | -122.55689 | 8474 ft | 200 kts | 155° |
| 2026-04-11 21:01 | 58.66094 | -122.54497 | 8988 ft | 202 kts | 155° |
| 2026-04-11 21:01 | 58.64830 | -122.53299 | 9519 ft | 203 kts | 155° |
| 2026-04-11 21:01 | 58.63555 | -122.52093 | 10047 ft | 205 kts | 155° |
| 2026-04-11 21:01 | 58.62271 | -122.50879 | 10523 ft | 207 kts | 155° |
| 2026-04-11 21:02 | 58.60977 | -122.49657 | 11011 ft | 207 kts | 155° |
| 2026-04-11 21:02 | 58.59679 | -122.48431 | 11505 ft | 208 kts | 155° |
| 2026-04-11 21:02 | 58.58379 | -122.47205 | 12002 ft | 209 kts | 155° |
| 2026-04-11 21:02 | 58.57073 | -122.45974 | 12512 ft | 209 kts | 155° |
| 2026-04-11 21:03 | 58.55785 | -122.44761 | 13021 ft | 209 kts | 155° |
| 2026-04-11 21:03 | 58.54485 | -122.43539 | 13545 ft | 210 kts | 155° |
| 2026-04-11 21:03 | 58.53169 | -122.42301 | 14058 ft | 210 kts | 155° |
| 2026-04-11 21:03 | 58.51858 | -122.41070 | 14541 ft | 209 kts | 155° |
| 2026-04-11 21:04 | 58.50555 | -122.39845 | 15040 ft | 208 kts | 155° |
| 2026-04-11 21:04 | 58.49256 | -122.38627 | 15548 ft | 208 kts | 155° |
| 2026-04-11 21:04 | 58.47960 | -122.37412 | 16066 ft | 207 kts | 155° |
| 2026-04-11 21:04 | 58.46667 | -122.36202 | 16587 ft | 207 kts | 155° |
| 2026-04-11 21:05 | 58.45375 | -122.34994 | 17126 ft | 206 kts | 155° |
| 2026-04-11 21:05 | 58.44089 | -122.33791 | 17670 ft | 206 kts | 155° |
| 2026-04-11 21:05 | 58.42802 | -122.32590 | 18228 ft | 205 kts | 156° |
| 2026-04-11 21:05 | 58.41520 | -122.31394 | 18722 ft | 205 kts | 155° |
| 2026-04-11 21:06 | 58.40254 | -122.30214 | 19204 ft | 205 kts | 155° |
| 2026-04-11 21:06 | 58.38959 | -122.29007 | 19697 ft | 204 kts | 155° |
| 2026-04-11 21:06 | 58.37682 | -122.27818 | 20192 ft | 204 kts | 155° |
| 2026-04-11 21:06 | 58.36422 | -122.26647 | 20696 ft | 203 kts | 155° |
| 2026-04-11 21:07 | 58.35153 | -122.25468 | 21212 ft | 203 kts | 155° |
| 2026-04-11 21:07 | 58.33888 | -122.24293 | 21735 ft | 201 kts | 154° |
| 2026-04-11 21:07 | 58.32632 | -122.23127 | 22271 ft | 200 kts | 154° |
| 2026-04-11 21:07 | 58.31384 | -122.21970 | 22825 ft | 198 kts | 154° |
| 2026-04-11 21:08 | 58.30152 | -122.20829 | 23321 ft | 199 kts | 154° |
| 2026-04-11 21:08 | 58.28876 | -122.19650 | 23674 ft | 209 kts | 154° |
| 2026-04-11 21:08 | 58.27539 | -122.18419 | 23974 ft | 219 kts | 154° |
| 2026-04-11 21:08 | 58.26142 | -122.17134 | 24264 ft | 227 kts | 155° |
| 2026-04-11 21:09 | 58.24689 | -122.15797 | 24555 ft | 235 kts | 155° |
| 2026-04-11 21:09 | 58.23201 | -122.14426 | 24850 ft | 240 kts | 155° |
| 2026-04-11 21:09 | 58.21684 | -122.13030 | 25097 ft | 247 kts | 155° |
| 2026-04-11 21:09 | 58.20066 | -122.11544 | 25102 ft | 265 kts | 155° |
| 2026-04-11 21:10 | 58.18387 | -122.10000 | 25111 ft | 278 kts | 155° |
| 2026-04-11 21:10 | 58.16611 | -122.08366 | 25106 ft | 289 kts | 155° |
| 2026-04-11 21:10 | 58.14768 | -122.06674 | 25104 ft | 298 kts | 154° |
| 2026-04-11 21:10 | 58.12874 | -122.04938 | 25107 ft | 305 kts | 155° |
| 2026-04-11 21:11 | 58.10945 | -122.03172 | 25107 ft | 310 kts | 155° |
| 2026-04-11 21:11 | 58.08989 | -122.01383 | 25101 ft | 314 kts | 154° |
| 2026-04-11 21:11 | 58.07015 | -121.99581 | 25103 ft | 317 kts | 154° |
| 2026-04-11 21:11 | 58.05023 | -121.97764 | 25104 ft | 319 kts | 155° |
| 2026-04-11 21:12 | 58.03021 | -121.95940 | 25100 ft | 320 kts | 155° |
| 2026-04-11 21:12 | 58.01014 | -121.94114 | 25094 ft | 321 kts | 155° |
| 2026-04-11 21:12 | 57.98996 | -121.92281 | 25100 ft | 321 kts | 155° |
| 2026-04-11 21:12 | 57.96980 | -121.90451 | 25097 ft | 322 kts | 155° |
| 2026-04-11 21:13 | 57.94962 | -121.88622 | 25096 ft | 322 kts | 155° |
| 2026-04-11 21:13 | 57.92964 | -121.86820 | 25093 ft | 322 kts | 155° |
| 2026-04-11 21:13 | 57.90933 | -121.85059 | 25093 ft | 322 kts | 156° |
| 2026-04-11 21:13 | 57.88889 | -121.83310 | 25091 ft | 322 kts | 156° |
| 2026-04-11 21:14 | 57.86860 | -121.81545 | 25088 ft | 322 kts | 155° |
| 2026-04-11 21:14 | 57.84825 | -121.79763 | 25090 ft | 322 kts | 155° |
| 2026-04-11 21:14 | 57.82792 | -121.77995 | 25086 ft | 322 kts | 156° |
| 2026-04-11 21:14 | 57.80754 | -121.76232 | 25082 ft | 322 kts | 156° |
| 2026-04-11 21:15 | 57.78715 | -121.74468 | 25080 ft | 322 kts | 156° |
| 2026-04-11 21:15 | 57.76678 | -121.72705 | 25075 ft | 321 kts | 156° |
| 2026-04-11 21:15 | 57.74653 | -121.70954 | 25076 ft | 321 kts | 156° |
| 2026-04-11 21:15 | 57.72620 | -121.69200 | 25076 ft | 321 kts | 156° |
| 2026-04-11 21:16 | 57.70584 | -121.67447 | 25075 ft | 321 kts | 156° |
| 2026-04-11 21:16 | 57.68582 | -121.65723 | 25076 ft | 321 kts | 156° |
| 2026-04-11 21:16 | 57.66530 | -121.63959 | 25076 ft | 321 kts | 156° |
| 2026-04-11 21:16 | 57.64531 | -121.62243 | 25071 ft | 320 kts | 156° |
| 2026-04-11 21:17 | 57.62497 | -121.60499 | 25073 ft | 320 kts | 156° |
| 2026-04-11 21:17 | 57.60471 | -121.58763 | 25070 ft | 320 kts | 156° |
| 2026-04-11 21:17 | 57.58449 | -121.57033 | 25069 ft | 320 kts | 156° |
| 2026-04-11 21:17 | 57.56420 | -121.55300 | 25068 ft | 320 kts | 156° |
| 2026-04-11 21:18 | 57.54392 | -121.53570 | 25065 ft | 320 kts | 156° |
| 2026-04-11 21:18 | 57.52370 | -121.51846 | 25071 ft | 319 kts | 156° |
| 2026-04-11 21:18 | 57.50345 | -121.50122 | 25065 ft | 319 kts | 156° |
| 2026-04-11 21:18 | 57.48345 | -121.48422 | 25064 ft | 319 kts | 156° |
| 2026-04-11 21:19 | 57.46321 | -121.46703 | 25064 ft | 319 kts | 156° |
| 2026-04-11 21:19 | 57.44296 | -121.44986 | 25063 ft | 319 kts | 156° |
| 2026-04-11 21:19 | 57.42276 | -121.43274 | 25062 ft | 318 kts | 156° |
| 2026-04-11 21:19 | 57.40260 | -121.41569 | 25056 ft | 318 kts | 156° |
| 2026-04-11 21:20 | 57.38242 | -121.39863 | 25055 ft | 318 kts | 156° |
| 2026-04-11 21:20 | 57.36228 | -121.38164 | 25054 ft | 318 kts | 156° |
| 2026-04-11 21:20 | 57.34216 | -121.36468 | 25056 ft | 318 kts | 156° |
| 2026-04-11 21:20 | 57.32228 | -121.34794 | 25051 ft | 317 kts | 156° |
| 2026-04-11 21:21 | 57.30216 | -121.33101 | 25050 ft | 317 kts | 156° |
| 2026-04-11 21:21 | 57.28201 | -121.31410 | 25051 ft | 317 kts | 156° |
| 2026-04-11 21:21 | 57.26192 | -121.29724 | 25047 ft | 317 kts | 156° |
| 2026-04-11 21:21 | 57.24188 | -121.28045 | 25046 ft | 316 kts | 157° |
| 2026-04-11 21:22 | 57.22185 | -121.26368 | 24978 ft | 318 kts | 157° |
| 2026-04-11 21:22 | 57.20128 | -121.24651 | 24615 ft | 329 kts | 156° |
| 2026-04-11 21:22 | 57.18043 | -121.22912 | 24252 ft | 328 kts | 156° |
| 2026-04-11 21:22 | 57.15978 | -121.21188 | 23891 ft | 323 kts | 156° |
| 2026-04-11 21:23 | 57.13949 | -121.19496 | 23485 ft | 318 kts | 156° |
| 2026-04-11 21:23 | 57.11942 | -121.17826 | 23033 ft | 314 kts | 157° |
| 2026-04-11 21:23 | 57.09954 | -121.16174 | 22589 ft | 311 kts | 157° |
| 2026-04-11 21:23 | 57.07988 | -121.14544 | 22151 ft | 309 kts | 157° |
| 2026-04-11 21:24 | 57.06033 | -121.12923 | 21718 ft | 307 kts | 158° |
| 2026-04-11 21:24 | 57.04100 | -121.11322 | 21296 ft | 305 kts | 158° |
| 2026-04-11 21:24 | 57.02168 | -121.09725 | 20871 ft | 302 kts | 158° |
| 2026-04-11 21:24 | 57.00279 | -121.08165 | 20461 ft | 300 kts | 158° |
| 2026-04-11 21:25 | 56.98383 | -121.06600 | 20053 ft | 298 kts | 159° |
| 2026-04-11 21:25 | 56.96496 | -121.05045 | 19659 ft | 297 kts | 159° |
| 2026-04-11 21:25 | 56.94624 | -121.03503 | 19285 ft | 295 kts | 159° |
| 2026-04-11 21:25 | 56.92754 | -121.01965 | 18918 ft | 293 kts | 159° |
| 2026-04-11 21:26 | 56.90902 | -121.00443 | 18556 ft | 291 kts | 160° |
| 2026-04-11 21:26 | 56.89055 | -120.98928 | 18173 ft | 290 kts | 160° |
| 2026-04-11 21:26 | 56.87213 | -120.97418 | 17754 ft | 289 kts | 160° |
| 2026-04-11 21:26 | 56.85381 | -120.95918 | 17338 ft | 288 kts | 160° |
| 2026-04-11 21:27 | 56.83555 | -120.94425 | 16929 ft | 287 kts | 160° |
| 2026-04-11 21:27 | 56.81738 | -120.92940 | 16524 ft | 285 kts | 159° |
| 2026-04-11 21:27 | 56.79936 | -120.91469 | 16126 ft | 283 kts | 159° |
| 2026-04-11 21:27 | 56.78140 | -120.90005 | 15730 ft | 282 kts | 159° |
| 2026-04-11 21:28 | 56.76351 | -120.88548 | 15345 ft | 281 kts | 159° |
| 2026-04-11 21:28 | 56.74569 | -120.87098 | 14964 ft | 280 kts | 159° |
| 2026-04-11 21:28 | 56.72789 | -120.85652 | 14579 ft | 279 kts | 159° |
| 2026-04-11 21:28 | 56.71021 | -120.84216 | 14203 ft | 277 kts | 159° |
| 2026-04-11 21:29 | 56.69262 | -120.82789 | 13837 ft | 276 kts | 159° |
| 2026-04-11 21:29 | 56.67515 | -120.81373 | 13422 ft | 275 kts | 159° |
| 2026-04-11 21:29 | 56.65774 | -120.79961 | 13058 ft | 273 kts | 159° |
| 2026-04-11 21:29 | 56.64072 | -120.78582 | 12707 ft | 271 kts | 158° |
| 2026-04-11 21:30 | 56.62345 | -120.77188 | 12356 ft | 270 kts | 159° |
| 2026-04-11 21:30 | 56.60635 | -120.75808 | 12007 ft | 269 kts | 158° |
| 2026-04-11 21:30 | 56.58930 | -120.74433 | 11666 ft | 268 kts | 158° |
| 2026-04-11 21:30 | 56.57230 | -120.73062 | 11325 ft | 268 kts | 159° |
| 2026-04-11 21:31 | 56.55527 | -120.71694 | 10977 ft | 267 kts | 158° |
| 2026-04-11 21:31 | 56.53836 | -120.70337 | 10645 ft | 265 kts | 158° |
| 2026-04-11 21:31 | 56.52145 | -120.68976 | 10314 ft | 265 kts | 157° |
| 2026-04-11 21:32 | 56.48787 | -120.66281 | 9629 ft | 262 kts | 156° |
| 2026-04-11 21:32 | 56.47128 | -120.64954 | 9267 ft | 258 kts | 156° |
| 2026-04-11 21:32 | 56.45506 | -120.63657 | 8907 ft | 254 kts | 155° |
| 2026-04-11 21:32 | 56.43900 | -120.62374 | 8554 ft | 250 kts | 155° |
| 2026-04-11 21:33 | 56.42315 | -120.61109 | 8206 ft | 248 kts | 155° |
| 2026-04-11 21:33 | 56.40743 | -120.59855 | 7860 ft | 246 kts | 155° |
| 2026-04-11 21:33 | 56.39180 | -120.58609 | 7521 ft | 244 kts | 155° |
| 2026-04-11 21:33 | 56.37630 | -120.57374 | 7184 ft | 243 kts | 154° |
| 2026-04-11 21:34 | 56.36087 | -120.56146 | 6850 ft | 242 kts | 154° |
| 2026-04-11 21:34 | 56.34548 | -120.54920 | 6518 ft | 240 kts | 155° |
| 2026-04-11 21:34 | 56.33043 | -120.53729 | 6189 ft | 239 kts | 153° |
| 2026-04-11 21:34 | 56.31525 | -120.52527 | 5835 ft | 235 kts | 154° |
| 2026-04-11 21:35 | 56.30043 | -120.51354 | 5489 ft | 230 kts | 153° |
| 2026-04-11 21:35 | 56.28590 | -120.50199 | 5150 ft | 227 kts | 153° |
| 2026-04-11 21:35 | 56.27148 | -120.49056 | 4808 ft | 225 kts | 153° |
| 2026-04-11 21:35 | 56.25718 | -120.47927 | 4488 ft | 220 kts | 153° |
| 2026-04-11 21:36 | 56.24369 | -120.46868 | 4215 ft | 203 kts | 153° |
| 2026-04-11 21:36 | 56.23530 | -120.46207 | 4035 ft | 193 kts | 153° |
| 2026-04-11 21:36 | 56.22333 | -120.45259 | 3817 ft | 184 kts | 153° |
| 2026-04-11 21:36 | 56.20844 | -120.44080 | 3809 ft | 169 kts | 153° |
| 2026-04-11 21:37 | 56.20107 | -120.43496 | 3808 ft | 170 kts | 153° |
| 2026-04-11 21:37 | 56.19022 | -120.42637 | 3818 ft | 172 kts | 154° |
| 2026-04-11 21:37 | 56.17869 | -120.42038 | 3819 ft | 175 kts | 176° |
| 2026-04-11 21:37 | 56.16677 | -120.42407 | 3825 ft | 174 kts | 204° |
| 2026-04-11 21:38 | 56.15700 | -120.43641 | 3820 ft | 167 kts | 227° |
| 2026-04-11 21:38 | 56.14914 | -120.45071 | 3810 ft | 157 kts | 228° |
| 2026-04-11 21:38 | 56.14159 | -120.46440 | 3833 ft | 152 kts | 229° |
| 2026-04-11 21:38 | 56.13429 | -120.47761 | 3827 ft | 148 kts | 229° |
| 2026-04-11 21:39 | 56.12714 | -120.49056 | 3817 ft | 144 kts | 229° |
| 2026-04-11 21:39 | 56.12145 | -120.50457 | 3819 ft | 136 kts | 254° |
| 2026-04-11 21:39 | 56.12169 | -120.52003 | 3817 ft | 121 kts | 302° |
| 2026-04-11 21:39 | 56.12531 | -120.53366 | 3820 ft | 121 kts | 301° |
| 2026-04-11 21:40 | 56.12995 | -120.54578 | 3816 ft | 117 kts | 317° |
| 2026-04-11 21:40 | 56.13539 | -120.55673 | 3809 ft | 117 kts | 319° |
| 2026-04-11 21:40 | 56.14094 | -120.56722 | 3812 ft | 117 kts | 320° |
| 2026-04-11 21:40 | 56.14663 | -120.57777 | 3811 ft | 119 kts | 320° |
| 2026-04-11 21:41 | 56.15245 | -120.58825 | 3811 ft | 120 kts | 321° |
| 2026-04-11 21:41 | 56.15808 | -120.59823 | 3806 ft | 120 kts | 320° |
| 2026-04-11 21:41 | 56.16342 | -120.60783 | 3805 ft | 120 kts | 321° |
| 2026-04-11 21:41 | 56.16935 | -120.61836 | 3800 ft | 120 kts | 320° |
| 2026-04-11 21:42 | 56.17519 | -120.62885 | 3794 ft | 116 kts | 320° |
| 2026-04-11 21:42 | 56.18062 | -120.63851 | 3791 ft | 106 kts | 322° |
| 2026-04-11 21:42 | 56.18552 | -120.64733 | 3675 ft | 95 kts | 322° |
| 2026-04-11 21:42 | 56.18947 | -120.65439 | 3567 ft | 90 kts | 322° |
| 2026-04-11 21:43 | 56.19382 | -120.66214 | 3445 ft | 87 kts | 321° |
| 2026-04-11 21:43 | 56.19824 | -120.67008 | 3319 ft | 92 kts | 321° |
| 2026-04-11 21:43 | 56.20285 | -120.67831 | 3169 ft | 95 kts | 321° |
| 2026-04-11 21:43 | 56.20754 | -120.68673 | 2997 ft | 95 kts | 319° |
| 2026-04-11 21:44 | 56.21224 | -120.69510 | 2849 ft | 95 kts | 320° |
| 2026-04-11 21:44 | 56.21694 | -120.70355 | 2702 ft | 95 kts | 320° |
| 2026-04-11 21:44 | 56.22162 | -120.71196 | 2567 ft | 96 kts | 319° |
| 2026-04-11 21:44 | 56.22556 | -120.71899 | 2462 ft | 94 kts | 319° |
| 2026-04-11 21:45 | 56.23006 | -120.72701 | 2340 ft | 87 kts | 320° |
| 2026-04-11 21:45 | 56.23412 | -120.73423 | 2253 ft | 74 kts | 319° |
| 2026-04-11 21:45 | 56.23717 | -120.73974 | 2247 ft | 50 kts | 316° |
| 2026-04-11 21:45 | 56.23793 | -120.74105 | 2248 ft | 5 kts | 315° |
| 2026-04-11 21:46 | 56.23863 | -120.74224 | 2249 ft | 21 kts | 320° |
| 2026-04-11 21:46 | 56.23891 | -120.74269 | 2250 ft | 3 kts | 333° |
| 2026-04-11 21:46 | 56.23902 | -120.74303 | 2250 ft | 5 kts | 225° |
| 2026-04-11 21:46 | 56.23854 | -120.74235 | 2249 ft | 16 kts | 133° |
| 2026-04-11 21:47 | 56.23753 | -120.74031 | 2248 ft | 27 kts | 133° |
| 2026-04-11 21:47 | 56.23504 | -120.73572 | 2251 ft | 19 kts | 136° |
| 2026-04-11 21:47 | 56.23435 | -120.73460 | 2250 ft | 11 kts | 140° |
| 2026-04-11 21:48 | 56.23354 | -120.73320 | 2250 ft | 21 kts | 136° |
| 2026-04-11 21:48 | 56.23259 | -120.73146 | 2248 ft | 9 kts | 128° |
| 2026-04-11 21:48 | 56.23261 | -120.73046 | 2249 ft | 7 kts | 82° |
| 2026-04-11 21:48 | 56.23236 | -120.73019 | 2249 ft | 2 kts | 218° |
| 2026-04-11 21:49 | 56.23236 | -120.73020 | 2249 ft | 0 kts | 220° |
| 2026-04-11 21:49 | 56.23235 | -120.73021 | 2249 ft | 0 kts | 222° |